Time;durP1;ratioP1;P1;durP2;ratioP2;P2;SDS_P1;SDS_P2;PMS_P1;PMS_P2;Temp;Humidity;BMP_temperature;BMP_pressure;BME280_temperature;BME280_humidity;BME280_pressure;Samples;Min_cycle;Max_cycle;Signal;HPM_P1;HPM_P2
2022/10/03 00:02:23;;;;;;;1.52;0.70;;;;;;;19.64;38.32;99425.16;5091517;28;20432;-79
2022/10/03 00:05:08;;;;;;;1.63;0.90;;;;;;;19.74;38.20;99433.38;5089461;28;20043;-79
2022/10/03 00:08:12;;;;;;;0.60;0.60;;;;;;;19.76;38.11;99427.75;5091791;28;20070;-78
2022/10/03 00:10:56;;;;;;;1.75;0.80;;;;;;;19.21;38.38;99359.47;5052671;28;20024;-79
2022/10/03 00:13:22;;;;;;;2.38;0.80;;;;;;;19.82;38.20;99432.16;5089750;28;20461;-79
2022/10/03 00:16:03;;;;;;;1.88;0.70;;;;;;;19.87;38.05;99434.94;5091701;28;20020;-79
2022/10/03 00:18:37;;;;;;;1.58;0.60;;;;;;;19.77;38.17;99426.72;5091946;28;20509;-79
2022/10/03 00:21:15;;;;;;;0.88;0.65;;;;;;;19.78;38.35;99429.16;5091644;28;20035;-78
2022/10/03 00:23:53;;;;;;;0.70;0.70;;;;;;;19.77;38.50;99421.34;5090585;28;20450;-79
2022/10/03 00:26:36;;;;;;;1.23;0.77;;;;;;;19.79;38.00;99421.94;5091887;28;20039;-79
2022/10/03 00:29:23;;;;;;;0.73;0.68;;;;;;;19.79;38.31;99416.56;5091640;28;20057;-79
2022/10/03 00:31:54;;;;;;;1.10;0.75;;;;;;;19.77;38.17;99418.66;5091783;28;20028;-78
2022/10/03 00:34:26;;;;;;;0.85;0.60;;;;;;;19.74;38.47;99411.94;5090971;28;20081;-79
2022/10/03 00:37:21;;;;;;;1.30;0.60;;;;;;;19.68;38.27;99404.84;5091660;28;20115;-79
2022/10/03 00:39:53;;;;;;;1.13;0.80;;;;;;;19.72;38.41;99414.03;5088974;28;20044;-79
2022/10/03 00:42:46;;;;;;;1.23;0.90;;;;;;;19.65;38.31;99410.69;5091301;28;20574;-79
2022/10/03 00:45:40;;;;;;;1.02;0.70;;;;;;;19.46;38.61;99388.63;5089721;28;20039;-79
2022/10/03 00:48:27;;;;;;;1.60;0.80;;;;;;;19.64;38.52;99417.91;5084997;28;20036;-79
2022/10/03 00:51:29;;;;;;;1.38;1.00;;;;;;;19.66;38.50;99415.81;5091475;28;20416;-79
2022/10/03 00:53:57;;;;;;;;;;;;;;;19.48;38.88;99415.97;5091880;28;20480;-79
2022/10/03 00:57:08;;;;;;;2.05;0.70;;;;;;;19.50;38.58;99405.84;5091346;28;19908;-79
2022/10/03 01:00:18;;;;;;;1.55;0.85;;;;;;;19.44;38.71;99409.47;5090240;28;20028;-79
2022/10/03 01:02:53;;;;;;;1.58;0.93;;;;;;;19.32;38.79;99390.78;5086735;28;20071;-79
2022/10/03 01:05:39;;;;;;;1.42;1.13;;;;;;;19.49;38.58;99419.47;5089993;28;20028;-79
2022/10/03 01:08:29;;;;;;;1.85;1.00;;;;;;;19.43;38.54;99418.56;5091456;28;20031;-79
2022/10/03 01:11:19;;;;;;;3.78;1.10;;;;;;;19.30;38.47;99413.47;5091288;28;20027;-79
2022/10/03 01:13:50;;;;;;;0.95;0.70;;;;;;;19.29;38.55;99411.81;5092623;28;20471;-79
2022/10/03 01:16:37;;;;;;;1.55;0.85;;;;;;;19.26;38.43;99407.75;5095113;28;20019;-79
2022/10/03 01:19:21;;;;;;;1.00;0.90;;;;;;;19.25;38.57;99405.31;5095451;28;20112;-79
2022/10/03 01:22:30;;;;;;;1.60;1.08;;;;;;;19.21;38.44;99414.88;5095215;28;20407;-79
2022/10/03 01:25:25;;;;;;;1.33;0.90;;;;;;;19.03;38.73;99370.38;5094076;28;20035;-79
2022/10/03 01:31:16;;;;;;;1.48;1.00;;;;;;;18.75;38.49;99312.28;5095227;28;20031;-79
2022/10/03 01:33:53;;;;;;;3.67;1.20;;;;;;;19.39;38.47;99401.34;5104240;28;20024;-79
2022/10/03 01:37:01;;;;;;;2.75;1.50;;;;;;;19.26;38.29;99383.66;5108831;28;20043;-79
2022/10/03 01:39:59;;;;;;;5.10;1.67;;;;;;;19.29;38.08;99393.09;5088846;28;20036;-79
2022/10/03 01:42:36;;;;;;;2.95;1.42;;;;;;;19.24;38.43;99393.00;5095585;28;20020;-78
2022/10/03 01:45:25;;;;;;;2.55;1.73;;;;;;;19.24;38.44;99393.00;5093750;28;20086;-79
2022/10/03 01:48:00;;;;;;;2.30;1.20;;;;;;;19.25;38.50;99387.41;5094465;28;20020;-79
2022/10/03 01:50:54;;;;;;;2.63;1.35;;;;;;;18.87;38.23;99326.44;5094589;28;20416;-79
2022/10/03 01:53:34;;;;;;;1.73;1.30;;;;;;;19.00;38.27;99355.59;5094703;28;20107;-79
2022/10/03 01:56:28;;;;;;;1.23;1.13;;;;;;;19.07;38.31;99360.81;5096543;28;20027;-79
2022/10/03 01:59:08;;;;;;;2.40;1.25;;;;;;;19.25;38.42;99389.25;5104274;28;20111;-79
2022/10/03 02:01:53;;;;;;;2.65;1.70;;;;;;;18.71;38.50;99308.47;5111796;28;20504;-79
2022/10/03 02:04:36;;;;;;;2.03;1.60;;;;;;;19.15;38.69;99381.84;5094279;28;20483;-79
2022/10/03 02:07:33;;;;;;;2.92;1.40;;;;;;;19.11;38.71;99379.88;5094910;28;20024;-79
2022/10/03 02:10:07;;;;;;;3.88;1.60;;;;;;;19.04;38.94;99380.03;5094618;28;20024;-78
2022/10/03 02:12:44;;;;;;;2.47;1.50;;;;;;;18.66;39.19;99335.91;5094078;28;20436;-79
2022/10/03 02:15:36;;;;;;;2.45;1.50;;;;;;;18.91;39.44;99397.16;5092573;28;20020;-79
2022/10/03 02:18:22;;;;;;;3.58;1.55;;;;;;;18.42;39.92;99328.91;5088266;28;20032;-79
2022/10/03 02:20:53;;;;;;;3.10;2.00;;;;;;;18.09;40.08;99241.34;5093716;28;20046;-79
2022/10/03 02:23:30;;;;;;;5.78;1.88;;;;;;;18.86;40.41;99389.03;5093216;28;20020;-79
2022/10/03 02:26:08;;;;;;;6.53;1.83;;;;;;;18.73;40.33;99391.94;5093756;28;20027;-79
2022/10/03 02:28:55;;;;;;;4.78;2.03;;;;;;;18.56;40.49;99399.81;5093869;28;20024;-79
2022/10/03 02:31:51;;;;;;;3.65;1.75;;;;;;;18.21;40.92;99367.72;5093851;28;20016;-79
2022/10/03 02:34:44;;;;;;;3.55;1.50;;;;;;;18.26;40.94;99391.91;5093626;28;20016;-79
2022/10/03 02:37:13;;;;;;;6.57;1.80;;;;;;;18.16;41.21;99385.50;5093630;28;20062;-79
2022/10/03 02:39:56;;;;;;;2.90;1.58;;;;;;;18.08;41.58;99378.66;5093496;28;20024;-79
2022/10/03 02:42:30;;;;;;;4.43;1.88;;;;;;;17.99;41.81;99378.16;5093528;28;20035;-79
2022/10/03 02:45:26;;;;;;;3.22;1.58;;;;;;;17.76;42.04;99341.53;5092149;28;20035;-79
2022/10/03 02:48:27;;;;;;;5.72;2.90;;;;;;;18.06;41.79;99396.75;5093467;28;20026;-79
2022/10/03 02:51:14;;;;;;;3.83;2.60;;;;;;;18.04;41.65;99397.00;5093252;28;20404;-78
2022/10/03 02:53:58;;;;;;;8.43;2.17;;;;;;;18.00;42.36;99405.69;5091997;28;20043;-79
2022/10/03 02:56:42;;;;;;;4.30;2.00;;;;;;;18.02;41.88;99395.59;5091867;28;20089;-79
2022/10/03 02:59:32;;;;;;;3.97;2.20;;;;;;;17.90;42.33;99384.88;5093224;28;20024;-79
2022/10/03 03:02:39;;;;;;;4.43;2.65;;;;;;;18.00;42.24;99401.16;5092962;28;20533;-79
2022/10/03 03:05:37;;;;;;;4.00;2.20;;;;;;;18.01;42.54;99410.00;5091573;28;20024;-79
2022/10/03 03:08:08;;;;;;;4.07;2.20;;;;;;;18.03;42.38;99407.91;5078784;28;20063;-78
2022/10/03 03:10:58;;;;;;;6.18;2.45;;;;;;;18.09;42.33;99401.66;5092922;28;20024;-79
2022/10/03 03:13:45;;;;;;;7.43;3.88;;;;;;;18.10;42.29;99392.59;5093103;28;20016;-79
2022/10/03 03:16:39;;;;;;;7.30;4.00;;;;;;;17.74;42.46;99359.63;5092996;28;20099;-79
2022/10/03 03:19:23;;;;;;;5.30;2.70;;;;;;;18.10;42.28;99398.75;5092816;28;20020;-79
2022/10/03 03:21:48;;;;;;;5.53;2.83;;;;;;;18.14;42.15;99393.75;5091503;28;20020;-79
2022/10/03 03:24:44;;;;;;;4.93;2.70;;;;;;;18.20;42.31;99397.38;5091048;28;20031;-79
2022/10/03 03:27:21;;;;;;;3.70;2.20;;;;;;;18.24;42.11;99391.31;5092453;28;20023;-79
2022/10/03 03:30:09;;;;;;;5.15;2.10;;;;;;;18.29;42.13;99386.09;5092669;28;20096;-78
2022/10/03 03:32:44;;;;;;;2.97;1.75;;;;;;;18.31;42.10;99388.53;5089407;28;20505;-79
2022/10/03 03:35:28;;;;;;;2.58;1.67;;;;;;;18.34;42.16;99378.19;5092448;28;20020;-79
2022/10/03 03:38:13;;;;;;;4.10;1.75;;;;;;;18.39;42.12;99364.13;5090861;28;20028;-79
2022/10/03 03:40:51;;;;;;;2.88;1.67;;;;;;;18.37;42.11;99372.38;5092752;28;20020;-78
2022/10/03 03:43:40;;;;;;;4.43;1.67;;;;;;;18.33;42.43;99365.88;5092436;28;20023;-78
2022/10/03 03:46:34;;;;;;;2.72;1.70;;;;;;;18.34;42.62;99364.00;5089541;28;20117;-79
2022/10/03 03:49:08;;;;;;;6.35;1.77;;;;;;;18.26;42.59;99359.03;5091290;28;20031;-79
2022/10/03 03:51:39;;;;;;;3.03;2.20;;;;;;;18.22;42.69;99358.66;5092486;28;20070;-79
2022/10/03 03:54:15;;;;;;;4.10;1.95;;;;;;;18.19;42.99;99350.31;5092290;28;20016;-79
2022/10/03 03:56:40;;;;;;;3.47;2.00;;;;;;;18.16;43.05;99342.75;5092007;28;20016;-78
2022/10/03 03:59:21;;;;;;;3.80;1.83;;;;;;;18.00;43.48;99321.03;5090819;28;20031;-78
2022/10/03 04:02:10;;;;;;;6.28;3.30;;;;;;;18.12;43.37;99347.75;5091911;28;20071;-79
2022/10/03 04:04:42;;;;;;;3.70;2.00;;;;;;;18.11;43.12;99340.78;5091966;28;20020;-78
2022/10/03 04:07:40;;;;;;;3.85;2.08;;;;;;;18.16;43.00;99337.41;5090641;28;20024;-79
2022/10/03 04:10:16;;;;;;;3.60;2.10;;;;;;;17.75;43.06;99296.34;5067499;28;20476;-78
2022/10/03 04:13:06;;;;;;;4.22;2.00;;;;;;;17.97;43.38;99344.72;5090133;28;20034;-79
2022/10/03 04:15:46;;;;;;;3.38;2.35;;;;;;;17.98;43.04;99349.00;5091881;28;20031;-79
2022/10/03 04:18:59;;;;;;;7.40;4.13;;;;;;;17.67;43.28;99307.38;5091959;28;20020;-79
2022/10/03 04:21:54;;;;;;;17.23;7.80;;;;;;;17.84;43.44;99348.41;5091643;28;20107;-79
2022/10/03 04:24:20;;;;;;;12.70;5.57;;;;;;;17.83;43.41;99335.25;5091506;28;20027;-79
2022/10/03 04:26:51;;;;;;;10.45;4.10;;;;;;;17.84;43.39;99342.25;5091804;28;20016;-79
2022/10/03 04:29:29;;;;;;;9.73;3.10;;;;;;;17.81;43.58;99332.81;5091772;28;20088;-79
2022/10/03 04:32:15;;;;;;;6.82;3.33;;;;;;;17.73;43.71;99335.81;5091592;28;20020;-79
2022/10/03 04:34:52;;;;;;;5.97;3.70;;;;;;;17.29;43.70;99249.81;5091531;28;20016;-79
2022/10/03 04:37:41;;;;;;;9.25;3.60;;;;;;;17.79;43.28;99314.34;5090235;28;20020;-79
2022/10/03 04:40:15;;;;;;;9.43;3.30;;;;;;;17.72;43.42;99327.00;5086032;28;20036;-79
2022/10/03 04:42:58;;;;;;;8.32;3.53;;;;;;;17.44;43.68;99286.75;5090413;28;20119;-79
2022/10/03 04:46:01;;;;;;;5.30;3.20;;;;;;;17.65;43.48;99334.28;5089897;28;20017;-78
2022/10/03 04:48:41;;;;;;;6.13;3.58;;;;;;;17.35;43.65;99256.09;5092746;28;20020;-79
2022/10/03 04:51:19;;;;;;;6.80;3.65;;;;;;;17.75;43.42;99299.03;5095782;28;20024;-79
2022/10/03 04:54:01;;;;;;;6.40;3.20;;;;;;;17.85;43.38;99315.31;5098600;28;20028;-80
2022/10/03 04:56:41;;;;;;;7.88;3.20;;;;;;;17.91;43.07;99324.28;5095545;28;20020;-79
2022/10/03 04:59:09;;;;;;;4.68;2.90;;;;;;;18.01;42.67;99337.88;5095566;28;20027;-79
2022/10/03 05:01:49;;;;;;;4.80;2.80;;;;;;;17.65;42.60;99296.88;5091582;28;20079;-79
2022/10/03 05:04:25;;;;;;;6.60;3.22;;;;;;;18.20;42.61;99354.59;5094554;28;20389;-79
2022/10/03 05:07:23;;;;;;;7.63;3.35;;;;;;;18.26;42.45;99348.31;5094377;28;20047;-79
2022/10/03 05:09:55;;;;;;;4.03;2.40;;;;;;;18.32;42.18;99337.53;5079418;28;20032;-79
2022/10/03 05:12:39;;;;;;;;;;;;;;;18.24;42.48;99329.84;5075147;28;20025;-79
2022/10/03 05:15:18;;;;;;;7.50;4.15;;;;;;;18.30;42.00;99312.06;5077016;28;19916;-79
2022/10/03 05:18:21;;;;;;;5.05;2.80;;;;;;;18.54;41.69;99328.91;5095133;28;20489;-79
2022/10/03 05:21:04;;;;;;;7.97;3.20;;;;;;;18.27;41.92;99291.16;5093366;28;20028;-79
2022/10/03 05:23:44;;;;;;;3.92;2.78;;;;;;;18.56;41.69;99334.81;5081614;28;20032;-78
2022/10/03 05:26:22;;;;;;;6.10;3.25;;;;;;;18.28;41.84;99276.75;5076601;28;20032;-79
2022/10/03 05:29:33;;;;;;;8.65;3.80;;;;;;;18.37;41.72;99291.38;5074453;28;20141;-78
2022/10/03 05:32:11;;;;;;;9.60;4.40;;;;;;;18.69;41.43;99330.09;5039744;28;20466;-79
2022/10/03 05:34:54;;;;;;;10.85;3.65;;;;;;;18.77;41.40;99328.09;5077505;28;20029;-79
2022/10/03 05:37:27;;;;;;;7.82;4.13;;;;;;;18.84;41.36;99323.44;5073053;28;20533;-79
2022/10/03 05:40:15;;;;;;;10.80;4.60;;;;;;;18.22;41.88;99227.72;5075400;28;20493;-79
2022/10/03 05:42:52;;;;;;;11.82;4.72;;;;;;;18.99;41.44;99324.53;5074382;28;20107;-79
2022/10/03 05:45:59;;;;;;;6.35;3.67;;;;;;;19.07;41.21;99314.50;5078633;28;20028;-77
2022/10/03 05:48:55;;;;;;;11.27;4.13;;;;;;;19.15;41.32;99317.63;5078306;28;20055;-78
2022/10/03 05:51:38;;;;;;;5.30;3.35;;;;;;;19.26;40.98;99321.28;5074045;28;20024;-79
2022/10/03 05:54:03;;;;;;;8.75;4.57;;;;;;;19.36;40.75;99337.56;5078044;28;20024;-79
2022/10/03 05:56:54;;;;;;;8.65;4.07;;;;;;;19.44;40.74;99329.16;5084208;28;20378;-79
2022/10/03 05:59:58;;;;;;;9.10;5.40;;;;;;;19.52;40.50;99328.78;5083639;28;20029;-79
2022/10/03 06:02:33;;;;;;;7.90;3.38;;;;;;;19.64;40.35;99334.06;5069585;28;20052;-78
2022/10/03 06:05:31;;;;;;;5.00;3.30;;;;;;;19.69;39.90;99336.84;5088661;28;20419;-79
2022/10/03 06:08:23;;;;;;;6.70;2.45;;;;;;;19.76;39.87;99348.22;5084897;28;20031;-78
2022/10/03 06:10:57;;;;;;;3.92;2.20;;;;;;;19.82;39.69;99344.56;5075898;28;20036;-79
2022/10/03 06:13:48;;;;;;;3.88;2.55;;;;;;;19.88;39.51;99346.25;5090421;28;20489;-79
2022/10/03 06:16:21;;;;;;;3.33;2.60;;;;;;;19.95;39.43;99346.91;5083171;28;20032;-79
2022/10/03 06:19:14;;;;;;;6.63;2.50;;;;;;;19.69;39.39;99304.69;5091120;28;20029;-79
2022/10/03 06:21:48;;;;;;;7.45;2.83;;;;;;;20.05;39.24;99348.13;5075892;28;20032;-78
2022/10/03 06:24:51;;;;;;;7.43;3.13;;;;;;;20.10;38.87;99346.38;5084347;28;20557;-79
2022/10/03 06:27:35;;;;;;;11.27;4.43;;;;;;;20.14;39.11;99352.88;5072226;28;20031;-79
2022/10/03 06:30:20;;;;;;;5.35;3.35;;;;;;;20.02;38.64;99319.13;5082841;28;20027;-79
2022/10/03 06:32:58;;;;;;;11.57;8.73;;;;;;;20.27;38.87;99349.84;5085032;28;20024;-78
2022/10/03 06:35:26;;;;;;;8.52;4.45;;;;;;;20.35;38.68;99345.94;5080802;28;20024;-78
2022/10/03 06:38:13;;;;;;;8.07;6.68;;;;;;;20.41;38.57;99344.16;5074136;28;20464;-78
2022/10/03 06:41:15;;;;;;;8.25;6.80;;;;;;;20.47;38.22;99330.59;5073273;28;20025;-77
2022/10/03 06:44:05;;;;;;;8.32;3.50;;;;;;;20.51;38.69;99333.56;5079049;28;20077;-79
2022/10/03 06:47:25;;;;;;;7.80;4.97;;;;;;;20.51;38.38;99336.25;5078577;28;20036;-78
2022/10/03 06:50:18;;;;;;;7.00;5.55;;;;;;;20.52;38.24;99335.19;5039514;28;20417;-79
2022/10/03 06:53:03;;;;;;;5.45;4.55;;;;;;;20.58;37.94;99334.22;5076350;28;20032;-78
2022/10/03 06:55:28;;;;;;;7.55;2.90;;;;;;;20.60;37.97;99338.25;5073599;28;20017;-79
2022/10/03 06:58:26;;;;;;;7.22;3.67;;;;;;;20.60;37.83;99337.47;5079716;28;20021;-79
2022/10/03 07:01:21;;;;;;;4.43;3.80;;;;;;;20.32;37.79;99292.81;5070560;28;20040;-79
2022/10/03 07:04:04;;;;;;;4.38;2.67;;;;;;;20.66;37.66;99333.78;5076714;28;20024;-79
2022/10/03 07:07:07;;;;;;;6.85;3.13;;;;;;;20.67;37.06;99322.00;5071396;28;20086;-79
2022/10/03 07:10:04;;;;;;;9.82;7.07;;;;;;;20.76;37.51;99317.81;5073175;28;20024;-79
2022/10/03 07:12:50;;;;;;;5.35;2.80;;;;;;;20.86;36.93;99307.22;5072320;28;20025;-79
2022/10/03 07:15:40;;;;;;;4.18;2.22;;;;;;;21.04;36.86;99316.81;5071932;28;20024;-79
2022/10/03 07:18:21;;;;;;;3.35;1.80;;;;;;;21.12;36.72;99320.94;5070653;28;20031;-79
2022/10/03 07:21:03;;;;;;;3.50;1.67;;;;;;;21.00;36.32;99286.19;5071806;28;20063;-79
2022/10/03 07:23:55;;;;;;;2.35;1.60;;;;;;;21.28;35.83;99308.50;5076847;28;20644;-78
2022/10/03 07:26:49;;;;;;;3.22;1.85;;;;;;;21.33;35.80;99303.19;5091778;28;20032;-79
2022/10/03 07:29:26;;;;;;;3.40;1.90;;;;;;;21.03;35.56;99247.28;5078286;28;20025;-79
2022/10/03 07:32:16;;;;;;;2.17;1.77;;;;;;;21.39;35.30;99299.47;5072529;28;20390;-79
2022/10/03 07:35:08;;;;;;;6.50;4.00;;;;;;;21.43;35.03;99287.97;5075583;28;20027;-79
2022/10/03 07:41:04;;;;;;;4.18;2.80;;;;;;;21.64;34.97;99277.44;5084478;28;20042;-79
2022/10/03 07:43:45;;;;;;;3.95;1.90;;;;;;;21.74;35.02;99283.69;5088242;28;20093;-79
2022/10/03 07:46:31;;;;;;;4.63;1.77;;;;;;;21.78;34.69;99289.38;5075731;28;20060;-79
2022/10/03 07:49:09;;;;;;;8.80;6.20;;;;;;;21.86;35.04;99288.88;5067195;28;20516;-79
2022/10/03 07:51:50;;;;;;;9.40;8.45;;;;;;;21.52;34.96;99216.59;5072427;28;20022;-79
2022/10/03 07:54:31;;;;;;;5.40;4.53;;;;;;;21.89;35.13;99291.06;5070709;28;20056;-79
2022/10/03 07:57:15;;;;;;;2.70;1.80;;;;;;;21.87;34.74;99279.75;5070820;28;20031;-79
2022/10/03 07:59:58;;;;;;;11.18;9.25;;;;;;;21.64;34.85;99255.94;5073127;28;20115;-79
2022/10/03 08:02:54;;;;;;;9.00;7.32;;;;;;;21.92;34.68;99293.22;5084111;28;20062;-79
2022/10/03 08:05:28;;;;;;;8.05;5.28;;;;;;;21.97;34.66;99290.56;5084972;28;20028;-79
2022/10/03 08:08:15;;;;;;;5.15;4.45;;;;;;;22.05;34.15;99292.00;5073705;28;20033;-79
2022/10/03 08:11:06;;;;;;;2.58;1.58;;;;;;;22.04;33.44;99291.19;5083762;28;20121;-79
2022/10/03 08:13:38;;;;;;;4.25;3.60;;;;;;;21.59;34.03;99213.72;5089922;28;20467;-78
2022/10/03 08:16:22;;;;;;;2.22;1.55;;;;;;;22.23;33.22;99291.56;5077188;28;20056;-78
2022/10/03 08:19:11;;;;;;;3.97;2.28;;;;;;;22.06;33.14;99267.53;5091464;28;20028;-78
2022/10/03 08:21:55;;;;;;;1.65;1.02;;;;;;;22.34;32.68;99289.78;5077318;28;20483;-78
2022/10/03 08:24:35;;;;;;;2.55;1.88;;;;;;;22.23;33.18;99263.88;5074548;28;20036;-78
2022/10/03 08:27:13;;;;;;;3.25;2.13;;;;;;;22.61;33.19;99284.25;5074432;28;20056;-77
2022/10/03 08:29:50;;;;;;;2.70;1.48;;;;;;;22.74;32.86;99281.09;5083467;28;20024;-79
2022/10/03 08:32:18;;;;;;;2.35;1.38;;;;;;;22.85;32.85;99280.06;5084896;28;20016;-79
2022/10/03 08:34:56;;;;;;;3.70;1.90;;;;;;;22.89;32.42;99283.03;5104544;28;20043;-79
2022/10/03 08:37:46;;;;;;;6.22;4.47;;;;;;;22.98;32.35;99284.16;5103166;28;20036;-78
2022/10/03 08:40:26;;;;;;;3.05;2.20;;;;;;;23.17;32.34;99281.78;5090691;28;20028;-79
2022/10/03 08:43:25;;;;;;;6.47;4.07;;;;;;;23.32;31.53;99274.53;5088374;28;20425;-77
2022/10/03 08:46:18;;;;;;;12.98;11.13;;;;;;;23.37;31.59;99284.53;5090301;28;20390;-79
2022/10/03 08:48:54;;;;;;;3.47;2.95;;;;;;;23.41;31.86;99285.59;5086638;28;20455;-79
2022/10/03 08:51:41;;;;;;;4.45;2.70;;;;;;;23.39;31.46;99280.47;5083381;28;20508;-79
2022/10/03 08:54:10;;;;;;;5.75;4.97;;;;;;;23.42;31.57;99269.16;5087275;28;20398;-79
2022/10/03 08:57:07;;;;;;;4.28;2.35;;;;;;;23.41;31.51;99275.63;5069134;28;20414;-79
2022/10/03 09:00:02;;;;;;;3.53;2.10;;;;;;;23.39;31.24;99277.78;5077087;28;20103;-79
2022/10/03 09:02:59;;;;;;;5.78;4.53;;;;;;;23.44;31.77;99282.38;5088050;28;20432;-78
2022/10/03 09:05:41;;;;;;;3.55;2.45;;;;;;;23.45;31.65;99294.75;5083862;28;20035;-78
2022/10/03 09:08:32;;;;;;;5.60;2.97;;;;;;;23.23;31.79;99251.91;5068703;28;20613;-79
2022/10/03 09:11:48;;;;;;;3.75;1.92;;;;;;;23.46;31.41;99288.28;5078031;28;20037;-79
2022/10/03 09:14:48;;;;;;;4.03;2.67;;;;;;;23.54;31.66;99285.06;5061718;28;20063;-79
2022/10/03 09:17:17;;;;;;;3.03;2.00;;;;;;;23.56;31.19;99292.91;5079876;28;20561;-79
2022/10/03 09:20:09;;;;;;;3.83;2.50;;;;;;;23.59;31.01;99292.38;5089568;28;20161;-78
2022/10/03 09:22:53;;;;;;;;;;;;;;;23.44;31.38;99291.25;5076908;28;20032;-77
2022/10/03 09:25:21;;;;;;;2.00;1.70;;;;;;;23.66;31.41;99288.34;5087719;28;19916;-78
2022/10/03 09:28:41;;;;;;;3.40;2.13;;;;;;;23.26;31.23;99202.06;5091195;28;20107;-79
2022/10/03 09:31:45;;;;;;;2.03;1.60;;;;;;;23.73;30.45;99288.06;5045115;28;20044;-80
2022/10/03 09:34:20;;;;;;;3.78;1.70;;;;;;;23.65;30.72;99296.69;5069893;28;20123;-79
2022/10/03 09:37:07;;;;;;;2.33;1.25;;;;;;;23.56;30.84;99290.22;5081949;28;20404;-77
2022/10/03 09:40:08;;;;;;;2.63;1.45;;;;;;;23.38;30.56;99284.25;5090839;28;20492;-79
2022/10/03 09:42:55;;;;;;;4.38;3.97;;;;;;;23.19;31.33;99285.84;5074920;28;20028;-78
2022/10/03 09:45:41;;;;;;;4.95;2.65;;;;;;;23.09;31.34;99291.22;5089346;28;20086;-77
2022/10/03 09:48:12;;;;;;;2.20;1.55;;;;;;;22.98;31.55;99297.59;5072884;28;20089;-77
2022/10/03 09:50:41;;;;;;;4.00;3.63;;;;;;;22.92;31.98;99301.38;5089823;28;20033;-79
2022/10/03 09:53:12;;;;;;;3.50;3.20;;;;;;;22.92;32.09;99301.38;5089953;28;20039;-78
2022/10/03 09:55:53;;;;;;;4.45;3.45;;;;;;;22.89;32.84;99291.13;5088533;28;20048;-79
2022/10/03 09:58:30;;;;;;;3.00;1.77;;;;;;;22.81;32.88;99292.44;5074403;28;20107;-78
2022/10/03 10:01:24;;;;;;;2.80;1.50;;;;;;;22.74;32.63;99289.97;5074455;28;20441;-78
2022/10/03 10:04:26;;;;;;;3.13;1.67;;;;;;;22.74;33.01;99300.72;5072887;28;20115;-79
2022/10/03 10:07:16;;;;;;;1.50;1.40;;;;;;;22.75;32.50;99293.47;5074113;28;20040;-78
2022/10/03 10:10:04;;;;;;;3.40;2.03;;;;;;;22.81;32.54;99287.88;5072628;28;20523;-79
2022/10/03 10:12:42;;;;;;;3.95;2.85;;;;;;;22.87;32.06;99286.00;5077002;28;20032;-79
2022/10/03 10:15:25;;;;;;;3.13;2.20;;;;;;;22.90;32.23;99288.16;5093655;28;20092;-78
2022/10/03 10:18:10;;;;;;;2.35;1.35;;;;;;;22.90;32.10;99292.75;5085067;28;20029;-79
2022/10/03 10:20:59;;;;;;;7.82;5.95;;;;;;;22.82;31.92;99288.69;5080749;28;20107;-79
2022/10/03 10:23:42;;;;;;;6.15;3.20;;;;;;;22.20;32.23;99212.22;5073341;28;20111;-79
2022/10/03 10:26:17;;;;;;;3.95;2.00;;;;;;;22.73;32.44;99285.66;5088206;28;20066;-79
2022/10/03 10:29:11;;;;;;;2.90;1.98;;;;;;;22.40;33.36;99226.88;5076527;28;20131;-79
2022/10/03 10:32:15;;;;;;;3.05;2.40;;;;;;;22.75;33.27;99285.41;5082209;28;20035;-79
2022/10/03 10:34:59;;;;;;;3.95;3.13;;;;;;;22.74;33.36;99281.09;5071274;28;20044;-79
2022/10/03 10:37:29;;;;;;;3.63;2.28;;;;;;;22.77;33.53;99272.47;5087349;28;20031;-79
2022/10/03 10:40:00;;;;;;;4.53;1.50;;;;;;;22.86;33.64;99272.81;5092696;28;20519;-79
2022/10/03 10:42:44;;;;;;;2.13;1.75;;;;;;;22.87;34.25;99274.41;5080087;28;20182;-78
2022/10/03 10:45:23;;;;;;;3.47;1.92;;;;;;;22.53;33.81;99229.06;5087413;28;20036;-79
2022/10/03 10:48:10;;;;;;;2.80;1.85;;;;;;;23.03;33.99;99262.63;5079625;28;20062;-79
2022/10/03 10:50:49;;;;;;;2.58;1.65;;;;;;;23.19;34.13;99258.09;5071903;28;20063;-79
2022/10/03 10:53:39;;;;;;;1.98;1.25;;;;;;;23.19;33.86;99266.97;5080526;28;20024;-78
2022/10/03 10:56:28;;;;;;;2.65;2.15;;;;;;;23.21;34.16;99258.63;5075094;28;20027;-78
2022/10/03 10:58:57;;;;;;;7.32;4.30;;;;;;;23.15;33.84;99265.91;5080093;28;20024;-78
2022/10/03 11:02:21;;;;;;;7.55;2.00;;;;;;;22.85;34.19;99234.31;5092940;28;20513;-78
2022/10/03 11:05:41;;;;;;;3.25;1.95;;;;;;;22.91;34.16;99270.13;5078187;28;20028;-78
2022/10/03 11:08:30;;;;;;;6.60;2.30;;;;;;;22.88;34.50;99281.44;5013983;28;20465;-78
2022/10/03 11:11:26;;;;;;;3.25;2.33;;;;;;;22.81;34.90;99284.38;5068600;28;20037;-78
2022/10/03 11:14:01;;;;;;;2.70;1.23;;;;;;;22.70;35.14;99282.69;5070957;28;20028;-77
2022/10/03 11:16:34;;;;;;;5.15;1.90;;;;;;;22.65;35.29;99286.16;5091825;28;20026;-79
2022/10/03 11:19:08;;;;;;;3.15;1.42;;;;;;;22.67;35.52;99293.97;5091108;28;20031;-77
2022/10/03 11:22:07;;;;;;;3.45;1.33;;;;;;;22.65;35.89;99307.69;5086069;28;20413;-77
2022/10/03 11:24:51;;;;;;;3.67;1.20;;;;;;;22.33;35.40;99261.28;5072771;28;20017;-77
2022/10/03 11:27:17;;;;;;;2.03;1.38;;;;;;;22.55;35.41;99288.00;5075447;28;20400;-79
2022/10/03 11:30:12;;;;;;;3.13;1.27;;;;;;;22.57;34.97;99278.59;5107598;28;20030;-79
2022/10/03 11:33:20;;;;;;;3.03;1.48;;;;;;;22.63;35.26;99280.22;5111887;28;20024;-77
2022/10/03 11:36:09;;;;;;;2.78;2.30;;;;;;;22.72;34.67;99280.53;5070812;28;20024;-79
2022/10/03 11:38:47;;;;;;;7.20;2.78;;;;;;;21.99;34.80;99163.97;5047908;28;20071;-77
2022/10/03 11:41:32;;;;;;;3.80;2.33;;;;;;;22.73;34.79;99272.19;5065055;28;20032;-79
2022/10/03 11:44:28;;;;;;;3.90;2.33;;;;;;;22.70;34.71;99267.34;5072922;28;20028;-79
2022/10/03 11:47:31;;;;;;;2.88;2.15;;;;;;;22.63;35.04;99261.41;5073514;28;20027;-79
2022/10/03 11:50:20;;;;;;;3.78;2.13;;;;;;;22.69;35.15;99273.00;5082121;28;20047;-79
2022/10/03 11:53:17;;;;;;;4.53;2.22;;;;;;;22.61;35.37;99271.63;5080720;28;20032;-79
2022/10/03 11:56:04;;;;;;;5.60;3.88;;;;;;;22.64;35.47;99271.09;5074631;28;20545;-79
2022/10/03 11:58:40;;;;;;;5.35;2.78;;;;;;;22.30;35.80;99229.50;5089149;28;20431;-78
2022/10/03 12:01:15;;;;;;;3.10;2.53;;;;;;;22.41;36.11;99264.25;5079835;28;20079;-76
2022/10/03 12:03:58;;;;;;;9.45;3.53;;;;;;;21.81;36.71;99208.22;5069907;28;20031;-77
2022/10/03 12:09:41;;;;;;;;;;;;;;;21.80;38.06;99279.16;5081517;28;20085;-77
2022/10/03 12:12:29;;;;;;;5.50;2.28;;;;;;;21.79;38.73;99281.03;5086001;28;19916;-78
2022/10/03 12:15:13;;;;;;;3.22;1.70;;;;;;;21.33;40.14;99239.53;5076517;28;20076;-77
2022/10/03 12:17:46;;;;;;;3.30;1.55;;;;;;;21.57;40.85;99291.06;5080011;28;20036;-78
2022/10/03 12:21:02;;;;;;;4.70;1.40;;;;;;;21.49;41.61;99294.19;5079532;28;20031;-80
2022/10/03 12:23:56;;;;;;;2.50;1.23;;;;;;;20.67;41.79;99179.81;5069849;28;20517;-78
2022/10/03 12:26:27;;;;;;;2.58;1.10;;;;;;;20.75;42.11;99189.28;5078495;28;20163;-79
2022/10/03 12:28:56;;;;;;;4.28;1.65;;;;;;;20.25;42.02;99110.69;5076761;28;20103;-79
2022/10/03 12:31:25;;;;;;;2.78;1.20;;;;;;;21.31;42.23;99278.47;5076743;28;20122;-79
2022/10/03 12:33:54;;;;;;;2.97;1.50;;;;;;;21.31;42.11;99292.69;5070359;28;20033;-78
2022/10/03 12:36:25;;;;;;;2.33;1.23;;;;;;;21.22;43.17;99291.50;5073536;28;20516;-79
2022/10/03 12:39:29;;;;;;;2.47;1.52;;;;;;;21.14;43.97;99294.63;5080937;28;20032;-78
2022/10/03 12:42:11;;;;;;;4.75;1.95;;;;;;;21.12;43.37;99286.84;5050819;28;20036;-78
2022/10/03 12:45:07;;;;;;;2.72;1.73;;;;;;;20.26;43.48;99149.84;5074787;28;20413;-79
2022/10/03 12:47:53;;;;;;;3.15;1.80;;;;;;;21.17;43.48;99308.38;5074008;28;20028;-78
2022/10/03 12:50:30;;;;;;;4.53;1.70;;;;;;;21.22;43.28;99292.34;5070561;28;20032;-79
2022/10/03 12:53:02;;;;;;;2.42;1.73;;;;;;;21.30;43.10;99293.75;5073151;28;20496;-78
2022/10/03 12:55:33;;;;;;;5.25;1.80;;;;;;;21.39;43.25;99286.88;5091021;28;20409;-79
2022/10/03 12:58:28;;;;;;;3.40;1.90;;;;;;;21.46;42.62;99295.53;5074580;28;20148;-79
2022/10/03 13:01:04;;;;;;;3.13;1.90;;;;;;;21.27;42.56;99250.50;5068070;28;20048;-79
2022/10/03 13:03:50;;;;;;;3.78;2.42;;;;;;;21.07;42.75;99208.94;5071458;28;20029;-78
2022/10/03 13:06:16;;;;;;;6.85;4.18;;;;;;;21.80;42.10;99290.72;5072636;28;20036;-79
2022/10/03 13:08:56;;;;;;;4.00;2.17;;;;;;;21.44;42.15;99218.94;5070767;28;20490;-79